sensor_id;sensor_type;location;lat;lon;timestamp;temperature;humidity
1155;DHT22;566;48.414;9.118;2022-11-12T00:00:41;3.20;78.40
1155;DHT22;566;48.414;9.118;2022-11-12T00:03:07;3.10;79.40
1155;DHT22;566;48.414;9.118;2022-11-12T00:05:33;3.10;76.10
1155;DHT22;566;48.414;9.118;2022-11-12T00:07:59;3.20;75.50
1155;DHT22;566;48.414;9.118;2022-11-12T00:10:25;3.10;75.40
1155;DHT22;566;48.414;9.118;2022-11-12T00:12:51;3.10;75.10
1155;DHT22;566;48.414;9.118;2022-11-12T00:15:17;3.20;72.70
1155;DHT22;566;48.414;9.118;2022-11-12T00:17:43;3.30;72.60
1155;DHT22;566;48.414;9.118;2022-11-12T00:20:09;3.40;73.40
1155;DHT22;566;48.414;9.118;2022-11-12T00:22:35;3.40;72.60
1155;DHT22;566;48.414;9.118;2022-11-12T00:25:01;3.40;73.30
1155;DHT22;566;48.414;9.118;2022-11-12T00:27:29;3.40;72.60
1155;DHT22;566;48.414;9.118;2022-11-12T00:29:55;3.40;72.40
1155;DHT22;566;48.414;9.118;2022-11-12T00:32:21;3.40;72.00
1155;DHT22;566;48.414;9.118;2022-11-12T00:34:47;3.40;72.50
1155;DHT22;566;48.414;9.118;2022-11-12T00:37:12;3.40;71.70
1155;DHT22;566;48.414;9.118;2022-11-12T00:39:38;3.30;72.70
1155;DHT22;566;48.414;9.118;2022-11-12T00:42:03;3.20;72.40
1155;DHT22;566;48.414;9.118;2022-11-12T00:44:29;3.00;72.60
1155;DHT22;566;48.414;9.118;2022-11-12T00:46:55;3.00;72.30
1155;DHT22;566;48.414;9.118;2022-11-12T00:49:21;3.00;70.90
1155;DHT22;566;48.414;9.118;2022-11-12T00:51:47;2.90;71.70
1155;DHT22;566;48.414;9.118;2022-11-12T00:54:14;2.90;70.20
1155;DHT22;566;48.414;9.118;2022-11-12T00:56:39;2.90;69.60
1155;DHT22;566;48.414;9.118;2022-11-12T00:59:05;3.00;69.00
1155;DHT22;566;48.414;9.118;2022-11-12T01:01:31;3.00;69.10
1155;DHT22;566;48.414;9.118;2022-11-12T01:03:58;3.00;70.10
1155;DHT22;566;48.414;9.118;2022-11-12T01:06:24;2.90;70.10
1155;DHT22;566;48.414;9.118;2022-11-12T01:08:54;2.80;71.20
1155;DHT22;566;48.414;9.118;2022-11-12T01:11:23;2.80;69.70
1155;DHT22;566;48.414;9.118;2022-11-12T01:13:57;2.70;69.80
1155;DHT22;566;48.414;9.118;2022-11-12T01:16:25;2.80;69.30
1155;DHT22;566;48.414;9.118;2022-11-12T01:18:55;2.70;70.60
1155;DHT22;566;48.414;9.118;2022-11-12T01:21:23;2.70;69.10
1155;DHT22;566;48.414;9.118;2022-11-12T01:23:52;2.60;70.00
1155;DHT22;566;48.414;9.118;2022-11-12T01:26:20;2.60;69.50
1155;DHT22;566;48.414;9.118;2022-11-12T01:28:46;2.60;69.80
1155;DHT22;566;48.414;9.118;2022-11-12T01:33:43;2.70;67.80
1155;DHT22;566;48.414;9.118;2022-11-12T01:36:10;2.70;70.10
1155;DHT22;566;48.414;9.118;2022-11-12T01:38:37;2.50;71.80
1155;DHT22;566;48.414;9.118;2022-11-12T01:41:04;2.30;70.90
1155;DHT22;566;48.414;9.118;2022-11-12T01:43:31;2.30;69.60
1155;DHT22;566;48.414;9.118;2022-11-12T01:45:57;2.30;69.50
1155;DHT22;566;48.414;9.118;2022-11-12T01:48:37;2.30;68.50
1155;DHT22;566;48.414;9.118;2022-11-12T01:51:04;2.40;68.40
1155;DHT22;566;48.414;9.118;2022-11-12T01:53:35;2.40;68.50
1155;DHT22;566;48.414;9.118;2022-11-12T01:56:04;2.50;68.10
1155;DHT22;566;48.414;9.118;2022-11-12T01:58:30;2.50;69.20
1155;DHT22;566;48.414;9.118;2022-11-12T02:01:01;2.50;69.60
1155;DHT22;566;48.414;9.118;2022-11-12T02:03:27;2.30;70.70
1155;DHT22;566;48.414;9.118;2022-11-12T02:06:06;2.40;68.40
1155;DHT22;566;48.414;9.118;2022-11-12T02:08:34;2.40;68.60
1155;DHT22;566;48.414;9.118;2022-11-12T02:11:13;2.50;68.40
1155;DHT22;566;48.414;9.118;2022-11-12T02:13:40;2.50;69.10
1155;DHT22;566;48.414;9.118;2022-11-12T02:16:31;2.60;69.30
1155;DHT22;566;48.414;9.118;2022-11-12T02:18:58;2.50;70.80
1155;DHT22;566;48.414;9.118;2022-11-12T02:21:25;2.40;71.20
1155;DHT22;566;48.414;9.118;2022-11-12T02:24:26;2.30;69.90
1155;DHT22;566;48.414;9.118;2022-11-12T02:26:53;2.40;68.80
1155;DHT22;566;48.414;9.118;2022-11-12T02:29:19;2.30;70.30
1155;DHT22;566;48.414;9.118;2022-11-12T02:31:47;2.20;71.00
1155;DHT22;566;48.414;9.118;2022-11-12T02:34:13;2.20;70.80
1155;DHT22;566;48.414;9.118;2022-11-12T02:36:38;2.00;71.50
1155;DHT22;566;48.414;9.118;2022-11-12T02:39:04;1.90;71.30
1155;DHT22;566;48.414;9.118;2022-11-12T02:41:30;1.90;70.20
1155;DHT22;566;48.414;9.118;2022-11-12T02:43:56;1.90;68.60
1155;DHT22;566;48.414;9.118;2022-11-12T02:46:22;2.10;67.40
1155;DHT22;566;48.414;9.118;2022-11-12T02:48:47;2.20;67.60
1155;DHT22;566;48.414;9.118;2022-11-12T02:51:13;2.20;68.70
1155;DHT22;566;48.414;9.118;2022-11-12T02:53:39;2.10;69.90
1155;DHT22;566;48.414;9.118;2022-11-12T02:56:07;2.10;68.70
1155;DHT22;566;48.414;9.118;2022-11-12T02:58:32;2.20;69.00
1155;DHT22;566;48.414;9.118;2022-11-12T03:00:58;2.20;68.60
1155;DHT22;566;48.414;9.118;2022-11-12T03:03:24;2.20;69.10
1155;DHT22;566;48.414;9.118;2022-11-12T03:05:55;2.20;69.40
1155;DHT22;566;48.414;9.118;2022-11-12T03:08:22;2.20;68.70
1155;DHT22;566;48.414;9.118;2022-11-12T03:10:49;2.20;68.60
1155;DHT22;566;48.414;9.118;2022-11-12T03:13:14;2.20;68.70
1155;DHT22;566;48.414;9.118;2022-11-12T03:15:40;2.30;68.50
1155;DHT22;566;48.414;9.118;2022-11-12T03:18:06;2.30;68.30
1155;DHT22;566;48.414;9.118;2022-11-12T03:20:32;2.40;68.20
1155;DHT22;566;48.414;9.118;2022-11-12T03:23:01;2.40;69.20
1155;DHT22;566;48.414;9.118;2022-11-12T03:25:28;2.50;68.60
1155;DHT22;566;48.414;9.118;2022-11-12T03:28:06;2.50;69.30
1155;DHT22;566;48.414;9.118;2022-11-12T03:30:36;2.50;69.60
1155;DHT22;566;48.414;9.118;2022-11-12T03:33:03;2.30;72.50
1155;DHT22;566;48.414;9.118;2022-11-12T03:35:28;2.10;72.90
1155;DHT22;566;48.414;9.118;2022-11-12T03:37:54;2.00;71.70
1155;DHT22;566;48.414;9.118;2022-11-12T03:40:20;1.90;70.90
1155;DHT22;566;48.414;9.118;2022-11-12T03:42:50;2.10;68.40
1155;DHT22;566;48.414;9.118;2022-11-12T03:45:17;2.10;69.10
1155;DHT22;566;48.414;9.118;2022-11-12T03:47:45;2.20;68.80
1155;DHT22;566;48.414;9.118;2022-11-12T03:50:16;2.20;69.10
1155;DHT22;566;48.414;9.118;2022-11-12T03:52:46;2.20;69.30
1155;DHT22;566;48.414;9.118;2022-11-12T03:55:13;2.20;69.40
1155;DHT22;566;48.414;9.118;2022-11-12T03:57:39;2.10;71.60
1155;DHT22;566;48.414;9.118;2022-11-12T04:00:06;2.00;70.10
1155;DHT22;566;48.414;9.118;2022-11-12T04:02:32;2.00;68.50
1155;DHT22;566;48.414;9.118;2022-11-12T04:05:01;2.10;68.10
1155;DHT22;566;48.414;9.118;2022-11-12T04:07:48;2.10;69.40
1155;DHT22;566;48.414;9.118;2022-11-12T04:10:32;2.00;68.70
1155;DHT22;566;48.414;9.118;2022-11-12T04:12:58;2.10;68.20
1155;DHT22;566;48.414;9.118;2022-11-12T04:15:42;2.20;68.10
1155;DHT22;566;48.414;9.118;2022-11-12T04:18:08;2.10;69.40
1155;DHT22;566;48.414;9.118;2022-11-12T04:20:52;2.10;68.40
1155;DHT22;566;48.414;9.118;2022-11-12T04:23:36;2.20;68.00
1155;DHT22;566;48.414;9.118;2022-11-12T04:26:02;2.30;68.00
1155;DHT22;566;48.414;9.118;2022-11-12T04:28:46;2.40;67.80
1155;DHT22;566;48.414;9.118;2022-11-12T04:31:30;2.40;67.40
1155;DHT22;566;48.414;9.118;2022-11-12T04:33:59;2.60;67.00
1155;DHT22;566;48.414;9.118;2022-11-12T04:36:45;2.60;67.70
1155;DHT22;566;48.414;9.118;2022-11-12T04:39:11;2.50;68.00
1155;DHT22;566;48.414;9.118;2022-11-12T04:41:37;2.50;68.40
1155;DHT22;566;48.414;9.118;2022-11-12T04:44:21;2.50;67.80
1155;DHT22;566;48.414;9.118;2022-11-12T04:47:05;2.50;67.70
1155;DHT22;566;48.414;9.118;2022-11-12T04:49:31;2.50;67.30
1155;DHT22;566;48.414;9.118;2022-11-12T04:51:56;2.60;67.00
1155;DHT22;566;48.414;9.118;2022-11-12T04:54:32;2.60;66.90
1155;DHT22;566;48.414;9.118;2022-11-12T04:56:58;2.70;67.60
1155;DHT22;566;48.414;9.118;2022-11-12T04:59:24;2.60;68.00
1155;DHT22;566;48.414;9.118;2022-11-12T05:01:50;2.60;67.60
1155;DHT22;566;48.414;9.118;2022-11-12T05:04:16;2.60;67.20
1155;DHT22;566;48.414;9.118;2022-11-12T05:06:45;2.70;66.80
1155;DHT22;566;48.414;9.118;2022-11-12T05:09:17;2.70;66.90
1155;DHT22;566;48.414;9.118;2022-11-12T05:11:43;2.80;66.50
1155;DHT22;566;48.414;9.118;2022-11-12T05:14:09;2.80;67.10
1155;DHT22;566;48.414;9.118;2022-11-12T05:16:34;2.80;66.70
1155;DHT22;566;48.414;9.118;2022-11-12T05:19:01;2.90;66.20
1155;DHT22;566;48.414;9.118;2022-11-12T05:21:27;2.90;66.60
1155;DHT22;566;48.414;9.118;2022-11-12T05:24:11;2.90;66.90
1155;DHT22;566;48.414;9.118;2022-11-12T05:26:38;2.90;66.80
1155;DHT22;566;48.414;9.118;2022-11-12T05:29:07;2.80;67.30
1155;DHT22;566;48.414;9.118;2022-11-12T05:31:33;2.70;67.70
1155;DHT22;566;48.414;9.118;2022-11-12T05:33:58;2.60;68.50
1155;DHT22;566;48.414;9.118;2022-11-12T05:36:24;2.50;67.50
1155;DHT22;566;48.414;9.118;2022-11-12T05:38:50;2.60;66.10
1155;DHT22;566;48.414;9.118;2022-11-12T05:41:16;2.70;66.10
1155;DHT22;566;48.414;9.118;2022-11-12T05:43:41;2.70;66.30
1155;DHT22;566;48.414;9.118;2022-11-12T05:46:08;2.80;66.10
1155;DHT22;566;48.414;9.118;2022-11-12T05:48:34;2.70;66.70
1155;DHT22;566;48.414;9.118;2022-11-12T05:50:59;2.70;66.90
1155;DHT22;566;48.414;9.118;2022-11-12T05:53:25;2.70;66.40
1155;DHT22;566;48.414;9.118;2022-11-12T05:55:51;2.60;67.40
1155;DHT22;566;48.414;9.118;2022-11-12T05:58:17;2.40;68.20
1155;DHT22;566;48.414;9.118;2022-11-12T06:00:42;2.30;68.20
1155;DHT22;566;48.414;9.118;2022-11-12T06:03:09;2.40;66.10
1155;DHT22;566;48.414;9.118;2022-11-12T06:05:35;2.60;65.90
1155;DHT22;566;48.414;9.118;2022-11-12T06:08:02;2.70;65.90
1155;DHT22;566;48.414;9.118;2022-11-12T06:10:28;2.80;66.10
1155;DHT22;566;48.414;9.118;2022-11-12T06:12:54;2.80;66.20
1155;DHT22;566;48.414;9.118;2022-11-12T06:15:20;2.80;66.20
1155;DHT22;566;48.414;9.118;2022-11-12T06:17:46;2.90;66.30
1155;DHT22;566;48.414;9.118;2022-11-12T06:20:12;2.90;66.50
1155;DHT22;566;48.414;9.118;2022-11-12T06:22:38;2.90;66.80
1155;DHT22;566;48.414;9.118;2022-11-12T06:25:06;2.90;66.90
1155;DHT22;566;48.414;9.118;2022-11-12T06:27:31;2.90;67.60
1155;DHT22;566;48.414;9.118;2022-11-12T06:29:57;2.90;67.60
1155;DHT22;566;48.414;9.118;2022-11-12T06:32:23;2.80;67.60
1155;DHT22;566;48.414;9.118;2022-11-12T06:34:49;3.00;66.60
1155;DHT22;566;48.414;9.118;2022-11-12T06:37:17;3.00;67.00
1155;DHT22;566;48.414;9.118;2022-11-12T06:39:42;3.10;66.70
1155;DHT22;566;48.414;9.118;2022-11-12T06:42:08;3.10;67.00
1155;DHT22;566;48.414;9.118;2022-11-12T06:44:34;3.10;67.40
1155;DHT22;566;48.414;9.118;2022-11-12T06:47:00;3.10;66.90
1155;DHT22;566;48.414;9.118;2022-11-12T06:49:26;3.20;66.80
1155;DHT22;566;48.414;9.118;2022-11-12T06:51:52;3.20;67.30
1155;DHT22;566;48.414;9.118;2022-11-12T06:54:18;3.20;67.00
1155;DHT22;566;48.414;9.118;2022-11-12T06:56:43;3.30;66.50
1155;DHT22;566;48.414;9.118;2022-11-12T06:59:09;3.30;66.40
1155;DHT22;566;48.414;9.118;2022-11-12T07:01:35;3.30;67.10
1155;DHT22;566;48.414;9.118;2022-11-12T07:04:02;3.30;67.20
1155;DHT22;566;48.414;9.118;2022-11-12T07:06:28;3.40;66.80
1155;DHT22;566;48.414;9.118;2022-11-12T07:08:54;3.50;66.80
1155;DHT22;566;48.414;9.118;2022-11-12T07:11:19;3.60;67.50
1155;DHT22;566;48.414;9.118;2022-11-12T07:13:46;3.40;69.70
1155;DHT22;566;48.414;9.118;2022-11-12T07:16:12;3.30;69.20
1155;DHT22;566;48.414;9.118;2022-11-12T07:18:45;3.30;68.10
1155;DHT22;566;48.414;9.118;2022-11-12T07:21:19;3.30;68.50
1155;DHT22;566;48.414;9.118;2022-11-12T07:23:45;3.30;69.60
1155;DHT22;566;48.414;9.118;2022-11-12T07:26:17;3.20;69.50
1155;DHT22;566;48.414;9.118;2022-11-12T07:28:44;3.20;69.00
1155;DHT22;566;48.414;9.118;2022-11-12T07:31:14;3.20;68.60
1155;DHT22;566;48.414;9.118;2022-11-12T07:33:41;3.30;68.80
1155;DHT22;566;48.414;9.118;2022-11-12T07:36:14;3.30;68.70
1155;DHT22;566;48.414;9.118;2022-11-12T07:38:41;3.40;69.20
1155;DHT22;566;48.414;9.118;2022-11-12T07:41:16;3.50;68.70
1155;DHT22;566;48.414;9.118;2022-11-12T07:43:43;3.60;68.80
1155;DHT22;566;48.414;9.118;2022-11-12T07:46:13;3.70;68.70
1155;DHT22;566;48.414;9.118;2022-11-12T07:48:40;3.90;67.70
1155;DHT22;566;48.414;9.118;2022-11-12T07:51:17;3.90;69.70
1155;DHT22;566;48.414;9.118;2022-11-12T07:53:44;3.90;70.50
1155;DHT22;566;48.414;9.118;2022-11-12T07:56:15;3.90;72.00
1155;DHT22;566;48.414;9.118;2022-11-12T07:58:42;4.00;72.60
1155;DHT22;566;48.414;9.118;2022-11-12T08:04:00;4.20;74.60
1155;DHT22;566;48.414;9.118;2022-11-12T08:06:27;4.40;73.40
1155;DHT22;566;48.414;9.118;2022-11-12T08:08:54;4.60;74.60
1155;DHT22;566;48.414;9.118;2022-11-12T08:11:24;4.60;75.20
1155;DHT22;566;48.414;9.118;2022-11-12T08:13:50;4.70;74.20
1155;DHT22;566;48.414;9.118;2022-11-12T08:16:16;4.60;78.50
1155;DHT22;566;48.414;9.118;2022-11-12T08:18:43;4.50;79.50
1155;DHT22;566;48.414;9.118;2022-11-12T08:21:11;4.50;81.10
1155;DHT22;566;48.414;9.118;2022-11-12T08:23:37;4.40;83.20
1155;DHT22;566;48.414;9.118;2022-11-12T08:26:05;4.50;82.60
1155;DHT22;566;48.414;9.118;2022-11-12T08:28:32;4.80;81.70
1155;DHT22;566;48.414;9.118;2022-11-12T08:31:03;5.20;79.10
1155;DHT22;566;48.414;9.118;2022-11-12T08:33:29;5.80;78.00
1155;DHT22;566;48.414;9.118;2022-11-12T08:35:55;6.40;84.60
1155;DHT22;566;48.414;9.118;2022-11-12T08:38:20;6.70;88.70
1155;DHT22;566;48.414;9.118;2022-11-12T08:40:46;7.30;88.20
1155;DHT22;566;48.414;9.118;2022-11-12T08:43:12;8.00;96.90
1155;DHT22;566;48.414;9.118;2022-11-12T08:45:39;8.40;98.00
1155;DHT22;566;48.414;9.118;2022-11-12T08:48:10;8.90;98.00
1155;DHT22;566;48.414;9.118;2022-11-12T08:50:38;9.70;98.00
1155;DHT22;566;48.414;9.118;2022-11-12T08:53:09;9.90;98.00
1155;DHT22;566;48.414;9.118;2022-11-12T08:55:38;10.10;98.00
1155;DHT22;566;48.414;9.118;2022-11-12T08:58:04;10.90;98.00
1155;DHT22;566;48.414;9.118;2022-11-12T09:00:38;11.30;95.90
1155;DHT22;566;48.414;9.118;2022-11-12T09:03:06;11.30;94.20
1155;DHT22;566;48.414;9.118;2022-11-12T09:05:35;11.20;93.90
1155;DHT22;566;48.414;9.118;2022-11-12T09:08:04;11.20;92.80
1155;DHT22;566;48.414;9.118;2022-11-12T09:10:30;11.80;92.60
1155;DHT22;566;48.414;9.118;2022-11-12T09:12:56;12.40;89.20
1155;DHT22;566;48.414;9.118;2022-11-12T09:15:23;12.80;87.70
1155;DHT22;566;48.414;9.118;2022-11-12T09:17:56;12.70;87.00
1155;DHT22;566;48.414;9.118;2022-11-12T09:20:23;12.40;86.40
1155;DHT22;566;48.414;9.118;2022-11-12T09:22:49;12.40;85.60
1155;DHT22;566;48.414;9.118;2022-11-12T09:25:15;12.50;85.30
1155;DHT22;566;48.414;9.118;2022-11-12T09:27:41;12.60;85.80
1155;DHT22;566;48.414;9.118;2022-11-12T09:30:10;12.90;85.90
1155;DHT22;566;48.414;9.118;2022-11-12T09:32:36;13.20;83.10
1155;DHT22;566;48.414;9.118;2022-11-12T09:35:02;13.40;83.30
1155;DHT22;566;48.414;9.118;2022-11-12T09:37:28;13.60;82.70
1155;DHT22;566;48.414;9.118;2022-11-12T09:39:53;13.80;82.90
1155;DHT22;566;48.414;9.118;2022-11-12T09:42:21;14.70;80.60
1155;DHT22;566;48.414;9.118;2022-11-12T09:45:12;15.60;79.10
1155;DHT22;566;48.414;9.118;2022-11-12T09:47:51;15.50;75.60
1155;DHT22;566;48.414;9.118;2022-11-12T09:52:54;14.90;78.10
1155;DHT22;566;48.414;9.118;2022-11-12T09:55:42;14.60;79.30
1155;DHT22;566;48.414;9.118;2022-11-12T09:58:11;14.40;79.40
1155;DHT22;566;48.414;9.118;2022-11-12T10:00:54;14.40;80.20
1155;DHT22;566;48.414;9.118;2022-11-12T10:03:37;14.40;80.90
1155;DHT22;566;48.414;9.118;2022-11-12T10:06:14;14.20;80.00
1155;DHT22;566;48.414;9.118;2022-11-12T10:08:57;14.00;81.70
1155;DHT22;566;48.414;9.118;2022-11-12T10:23:33;14.40;79.80
1155;DHT22;566;48.414;9.118;2022-11-12T10:26:00;14.00;81.00
1155;DHT22;566;48.414;9.118;2022-11-12T10:28:51;13.70;82.50
1155;DHT22;566;48.414;9.118;2022-11-12T10:31:20;13.50;82.90
1155;DHT22;566;48.414;9.118;2022-11-12T10:33:46;13.10;84.40
1155;DHT22;566;48.414;9.118;2022-11-12T10:36:27;12.90;86.00
1155;DHT22;566;48.414;9.118;2022-11-12T10:38:55;13.10;86.30
1155;DHT22;566;48.414;9.118;2022-11-12T10:41:27;13.10;85.50
1155;DHT22;566;48.414;9.118;2022-11-12T10:44:00;13.00;85.70
1155;DHT22;566;48.414;9.118;2022-11-12T10:46:35;13.30;86.50
1155;DHT22;566;48.414;9.118;2022-11-12T10:49:06;13.30;85.00
1155;DHT22;566;48.414;9.118;2022-11-12T10:51:37;13.30;85.20
1155;DHT22;566;48.414;9.118;2022-11-12T10:54:35;13.30;85.30
1155;DHT22;566;48.414;9.118;2022-11-12T10:59:45;13.10;85.60
1155;DHT22;566;48.414;9.118;2022-11-12T11:02:16;13.40;85.50
1155;DHT22;566;48.414;9.118;2022-11-12T11:04:42;13.30;84.50
1155;DHT22;566;48.414;9.118;2022-11-12T11:07:20;13.30;85.00
1155;DHT22;566;48.414;9.118;2022-11-12T11:09:58;13.50;84.60
1155;DHT22;566;48.414;9.118;2022-11-12T11:12:36;13.40;84.80
1155;DHT22;566;48.414;9.118;2022-11-12T11:17:31;13.50;84.00
1155;DHT22;566;48.414;9.118;2022-11-12T11:19:59;13.20;85.80
1155;DHT22;566;48.414;9.118;2022-11-12T11:25:19;13.50;85.50
1155;DHT22;566;48.414;9.118;2022-11-12T11:36:56;14.20;83.50
1155;DHT22;566;48.414;9.118;2022-11-12T11:39:46;14.00;84.50
1155;DHT22;566;48.414;9.118;2022-11-12T11:42:22;14.00;84.80
1155;DHT22;566;48.414;9.118;2022-11-12T11:45:08;14.10;86.10
1155;DHT22;566;48.414;9.118;2022-11-12T11:48:13;14.10;86.60
1155;DHT22;566;48.414;9.118;2022-11-12T11:53:25;13.60;87.30
1155;DHT22;566;48.414;9.118;2022-11-12T11:55:58;13.40;88.00
1155;DHT22;566;48.414;9.118;2022-11-12T12:01:12;12.90;90.10
1155;DHT22;566;48.414;9.118;2022-11-12T12:07:09;12.40;91.20
1155;DHT22;566;48.414;9.118;2022-11-12T12:09:59;12.40;91.80
1155;DHT22;566;48.414;9.118;2022-11-12T12:18:38;12.30;92.40
1155;DHT22;566;48.414;9.118;2022-11-12T12:21:17;12.20;92.80
1155;DHT22;566;48.414;9.118;2022-11-12T12:23:47;11.90;93.30
1155;DHT22;566;48.414;9.118;2022-11-12T12:26:25;11.90;94.00
1155;DHT22;566;48.414;9.118;2022-11-12T12:31:34;12.00;94.10
1155;DHT22;566;48.414;9.118;2022-11-12T12:36:45;12.50;92.30
1155;DHT22;566;48.414;9.118;2022-11-12T12:39:17;12.80;91.90
1155;DHT22;566;48.414;9.118;2022-11-12T12:44:55;13.00;91.30
1155;DHT22;566;48.414;9.118;2022-11-12T12:47:24;13.00;91.20
1155;DHT22;566;48.414;9.118;2022-11-12T12:49:51;13.00;91.40
1155;DHT22;566;48.414;9.118;2022-11-12T12:52:17;13.10;91.70
1155;DHT22;566;48.414;9.118;2022-11-12T12:57:37;12.90;91.60
1155;DHT22;566;48.414;9.118;2022-11-12T13:02:58;12.40;92.90
1155;DHT22;566;48.414;9.118;2022-11-12T13:07:56;12.30;93.80
1155;DHT22;566;48.414;9.118;2022-11-12T13:13:23;12.20;93.80
1155;DHT22;566;48.414;9.118;2022-11-12T13:15:53;12.20;94.10
1155;DHT22;566;48.414;9.118;2022-11-12T13:21:11;12.20;94.20
1155;DHT22;566;48.414;9.118;2022-11-12T13:23:46;12.30;95.10
1155;DHT22;566;48.414;9.118;2022-11-12T13:26:57;12.30;94.00
1155;DHT22;566;48.414;9.118;2022-11-12T13:37:43;12.00;95.50
1155;DHT22;566;48.414;9.118;2022-11-12T13:40:15;12.10;95.50
1155;DHT22;566;48.414;9.118;2022-11-12T13:42:45;12.30;95.10
1155;DHT22;566;48.414;9.118;2022-11-12T13:45:18;12.10;94.90
1155;DHT22;566;48.414;9.118;2022-11-12T13:47:45;11.80;95.40
1155;DHT22;566;48.414;9.118;2022-11-12T13:50:22;11.60;96.50
1155;DHT22;566;48.414;9.118;2022-11-12T13:52:49;11.30;97.00
1155;DHT22;566;48.414;9.118;2022-11-12T13:55:21;11.00;97.50
1155;DHT22;566;48.414;9.118;2022-11-12T14:00:24;10.90;98.00
1155;DHT22;566;48.414;9.118;2022-11-12T14:02:59;10.90;98.00
1155;DHT22;566;48.414;9.118;2022-11-12T14:05:33;10.90;98.00
1155;DHT22;566;48.414;9.118;2022-11-12T14:08:09;11.00;98.00
1155;DHT22;566;48.414;9.118;2022-11-12T14:16:21;11.10;98.00
1155;DHT22;566;48.414;9.118;2022-11-12T14:19:07;11.00;97.90
1155;DHT22;566;48.414;9.118;2022-11-12T14:21:36;10.90;98.00
1155;DHT22;566;48.414;9.118;2022-11-12T14:24:03;11.00;98.00
1155;DHT22;566;48.414;9.118;2022-11-12T14:26:40;10.90;97.90
1155;DHT22;566;48.414;9.118;2022-11-12T14:29:12;10.90;98.00
1155;DHT22;566;48.414;9.118;2022-11-12T14:31:40;10.90;98.00
1155;DHT22;566;48.414;9.118;2022-11-12T14:34:26;10.90;98.00
1155;DHT22;566;48.414;9.118;2022-11-12T14:36:53;10.80;98.00
1155;DHT22;566;48.414;9.118;2022-11-12T14:39:23;10.80;98.00
1155;DHT22;566;48.414;9.118;2022-11-12T14:41:51;10.80;98.00
1155;DHT22;566;48.414;9.118;2022-11-12T14:44:20;10.80;98.00
1155;DHT22;566;48.414;9.118;2022-11-12T14:46:54;10.80;98.00
1155;DHT22;566;48.414;9.118;2022-11-12T14:51:54;10.70;98.00
1155;DHT22;566;48.414;9.118;2022-11-12T14:54:33;10.50;98.00
1155;DHT22;566;48.414;9.118;2022-11-12T14:57:02;10.50;98.00
1155;DHT22;566;48.414;9.118;2022-11-12T14:59:30;10.30;98.00
1155;DHT22;566;48.414;9.118;2022-11-12T15:02:35;10.20;98.00
1155;DHT22;566;48.414;9.118;2022-11-12T15:05:23;10.10;98.00
1155;DHT22;566;48.414;9.118;2022-11-12T15:08:01;9.90;98.00
1155;DHT22;566;48.414;9.118;2022-11-12T15:10:32;9.70;98.00
1155;DHT22;566;48.414;9.118;2022-11-12T15:13:08;9.50;98.00
1155;DHT22;566;48.414;9.118;2022-11-12T15:15:37;9.40;98.00
1155;DHT22;566;48.414;9.118;2022-11-12T15:18:06;9.40;98.00
1155;DHT22;566;48.414;9.118;2022-11-12T15:20:38;9.30;98.00
1155;DHT22;566;48.414;9.118;2022-11-12T15:23:04;9.10;98.00
1155;DHT22;566;48.414;9.118;2022-11-12T15:25:30;9.10;98.00
1155;DHT22;566;48.414;9.118;2022-11-12T15:28:32;9.10;98.00
1155;DHT22;566;48.414;9.118;2022-11-12T15:31:05;8.90;98.00
1155;DHT22;566;48.414;9.118;2022-11-12T15:33:31;8.80;98.00
1155;DHT22;566;48.414;9.118;2022-11-12T15:35:59;8.60;96.80
1155;DHT22;566;48.414;9.118;2022-11-12T15:38:31;8.40;95.60
1155;DHT22;566;48.414;9.118;2022-11-12T15:41:00;8.30;94.10
1155;DHT22;566;48.414;9.118;2022-11-12T15:43:28;8.20;93.40
1155;DHT22;566;48.414;9.118;2022-11-12T15:45:55;8.10;92.50
1155;DHT22;566;48.414;9.118;2022-11-12T15:48:21;8.00;91.70
1155;DHT22;566;48.414;9.118;2022-11-12T15:50:47;7.90;90.50
1155;DHT22;566;48.414;9.118;2022-11-12T15:53:13;7.80;89.60
1155;DHT22;566;48.414;9.118;2022-11-12T15:55:40;7.70;88.60
1155;DHT22;566;48.414;9.118;2022-11-12T15:58:17;7.70;88.90
1155;DHT22;566;48.414;9.118;2022-11-12T16:00:44;7.50;88.10
1155;DHT22;566;48.414;9.118;2022-11-12T16:03:11;7.30;87.70
1155;DHT22;566;48.414;9.118;2022-11-12T16:05:38;7.20;87.10
1155;DHT22;566;48.414;9.118;2022-11-12T16:08:04;7.10;86.30
1155;DHT22;566;48.414;9.118;2022-11-12T16:10:29;7.00;85.90
1155;DHT22;566;48.414;9.118;2022-11-12T16:12:58;6.80;84.50
1155;DHT22;566;48.414;9.118;2022-11-12T16:15:24;6.80;83.30
1155;DHT22;566;48.414;9.118;2022-11-12T16:17:51;6.70;82.60
1155;DHT22;566;48.414;9.118;2022-11-12T16:20:34;6.70;83.50
1155;DHT22;566;48.414;9.118;2022-11-12T16:23:00;6.60;81.70
1155;DHT22;566;48.414;9.118;2022-11-12T16:25:31;6.60;82.10
1155;DHT22;566;48.414;9.118;2022-11-12T16:27:58;6.50;80.90
1155;DHT22;566;48.414;9.118;2022-11-12T16:30:27;6.50;81.10
1155;DHT22;566;48.414;9.118;2022-11-12T16:32:56;6.50;80.30
1155;DHT22;566;48.414;9.118;2022-11-12T16:35:22;6.50;79.30
1155;DHT22;566;48.414;9.118;2022-11-12T16:37:48;6.50;79.40
1155;DHT22;566;48.414;9.118;2022-11-12T16:40:25;6.60;77.60
1155;DHT22;566;48.414;9.118;2022-11-12T16:42:52;6.50;79.40
1155;DHT22;566;48.414;9.118;2022-11-12T16:45:21;6.30;79.00
1155;DHT22;566;48.414;9.118;2022-11-12T16:47:50;6.20;77.60
1155;DHT22;566;48.414;9.118;2022-11-12T16:50:22;6.20;75.60
1155;DHT22;566;48.414;9.118;2022-11-12T16:52:49;6.20;77.40
1155;DHT22;566;48.414;9.118;2022-11-12T16:55:15;6.00;76.90
1155;DHT22;566;48.414;9.118;2022-11-12T16:57:44;5.90;77.60
1155;DHT22;566;48.414;9.118;2022-11-12T17:00:13;5.70;76.70
1155;DHT22;566;48.414;9.118;2022-11-12T17:02:39;5.60;75.40
1155;DHT22;566;48.414;9.118;2022-11-12T17:05:14;5.60;73.90
1155;DHT22;566;48.414;9.118;2022-11-12T17:07:40;5.70;73.60
1155;DHT22;566;48.414;9.118;2022-11-12T17:10:06;5.70;74.10
1155;DHT22;566;48.414;9.118;2022-11-12T17:12:32;5.60;74.40
1155;DHT22;566;48.414;9.118;2022-11-12T17:14:58;5.60;74.10
1155;DHT22;566;48.414;9.118;2022-11-12T17:17:23;5.50;73.30
1155;DHT22;566;48.414;9.118;2022-11-12T17:19:49;5.50;72.10
1155;DHT22;566;48.414;9.118;2022-11-12T17:22:15;5.60;72.00
1155;DHT22;566;48.414;9.118;2022-11-12T17:24:40;5.50;73.10
1155;DHT22;566;48.414;9.118;2022-11-12T17:27:06;5.40;71.80
1155;DHT22;566;48.414;9.118;2022-11-12T17:29:32;5.40;70.70
1155;DHT22;566;48.414;9.118;2022-11-12T17:31:57;5.40;71.00
1155;DHT22;566;48.414;9.118;2022-11-12T17:34:23;5.40;69.80
1155;DHT22;566;48.414;9.118;2022-11-12T17:36:49;5.50;68.80
1155;DHT22;566;48.414;9.118;2022-11-12T17:39:15;5.60;69.30
1155;DHT22;566;48.414;9.118;2022-11-12T17:41:43;5.50;68.90
1155;DHT22;566;48.414;9.118;2022-11-12T17:44:15;5.50;68.50
1155;DHT22;566;48.414;9.118;2022-11-12T17:46:42;5.50;68.50
1155;DHT22;566;48.414;9.118;2022-11-12T17:49:08;5.60;68.50
1155;DHT22;566;48.414;9.118;2022-11-12T17:51:34;5.60;68.80
1155;DHT22;566;48.414;9.118;2022-11-12T17:54:00;5.50;71.10
1155;DHT22;566;48.414;9.118;2022-11-12T17:56:26;5.40;69.80
1155;DHT22;566;48.414;9.118;2022-11-12T17:58:52;5.40;69.50
1155;DHT22;566;48.414;9.118;2022-11-12T18:03:48;5.40;69.30
1155;DHT22;566;48.414;9.118;2022-11-12T18:06:33;5.50;69.20
1155;DHT22;566;48.414;9.118;2022-11-12T18:09:07;5.50;69.30
1155;DHT22;566;48.414;9.118;2022-11-12T18:11:44;5.60;69.90
1155;DHT22;566;48.414;9.118;2022-11-12T18:14:10;5.90;68.80
1155;DHT22;566;48.414;9.118;2022-11-12T18:16:37;5.90;72.40
1155;DHT22;566;48.414;9.118;2022-11-12T18:19:02;5.80;72.50
1155;DHT22;566;48.414;9.118;2022-11-12T18:21:28;5.60;73.60